YPBO

Details ICAO YPBO (PBO)
Name Paraburdoo
Region Australia
Timezone Australia/Perth (UTC+8.0)
Plans Departing 1
Arriving 1
Stats Elevation 1,406 ft / 429 m (AMSL)
Location -23.171430° 117.746934°
Runways 1
Magnetic Variation 0.894° E
Sunrise 2017-12-16 21:19:44 UTC / 2017-12-17 05:19:44 Local
Sunset 2017-12-17 10:52:58 UTC / 2017-12-17 18:52:58 Local
Advertisement - Login to hide

Runways

ID Width Length Bearing (true) Bearing (mag) Surface Threshold Offset Overrun Length
06 148 ft / 45 m 6,992 ft / 2,131 m 65.00° 64.11° Asphalt 0 ft / 0 m 207 ft / 63 m
24 148 ft / 45 m 6,992 ft / 2,131 m 245.00° 244.11° Asphalt 0 ft / 0 m 197 ft / 60 m

Map

Weather


0- 5 10 15 20 25 30 35+ Temperature / ° C

Clouds and Precipitation
Forecast for 2017-12-17 06:00 UTC. Updated an hour ago

Ground ~20,000 ft ~40,000 ft Winds

METAR

YPBO 170600Z AUTO 30016KT 9999 // NCD 36/08 Q1007

TAF

Not found

Frequencies

Unicom 126.70 MHz CTAF
Warning: Do not use this data for real-world aviation or navigation. No guarantee of current accuracy is given.